McCook Municipal, NE

1:19 PM CDT en Septiembre 23, 2014 (GMT -0500)
McCook Municipal | Change Station
CLOSE
Current Station
Aeropuerto
Location: McCook,
Altura: 2579 ft
Estaciones meteorológicas cercanas

Alt 2579 ft 40.20 °N, 100.59 °W | Updated 26 minutes ago

Clear
Despejado
74 ° F
Sensación térmica 74 ° F
N
8
Viento Variable Viento desde Sur

Hoy
Alta -- | Baja -- ° F
--% Posibilidad de precipitaciones
Ayer
Alta -- | Baja -- ° F
Precip. -- pul
7:30 AM 7:37 PM
Creciente menguante, 0% visible
Presión 29.97 pul
Visibilidad 10.0 Millas
Nubes Despejado
Punto de rocío 61 ° F
Humedad 64%
Precipitaciones 0.18 pul
Espesor de la nieve No disponible.
UV 7 de una escala de 12
Polen 2.60 de una escala de 12
Calidad del aire No disponible.
Flu Activity No disponible.
METAR KMCK 231753Z AUTO 19007KT 10SM CLR 23/16 A3001 RMK AO2 SLP147 T02330161 10233 20122 58010

More Conditions Fewer Conditions

Presión 29.97 pul
Visibilidad 10.0 Millas
Nubes Despejado
Punto de rocío 61 ° F
Humedad 64%
Precipitaciones 0.18 pul
Espesor de la nieve No disponible.
UV 7 de una escala de 12
Polen 2.60 de una escala de 12
Calidad del aire No disponible.
Flu Activity No disponible.
METAR KMCK 231753Z AUTO 19007KT 10SM CLR 23/16 A3001 RMK AO2 SLP147 T02330161 10233 20122 58010

More Conditions Fewer Conditions

10-Day Weather Forecast

Almanac

Astronomía

Sep. 23, 2014 Salida Puesta
Hora real 7:30 AM CDT 7:37 PM CDT
Crepúsculo civil 7:03 AM CDT 8:04 PM CDT
Crepúsculo náutico 6:32 AM CDT 8:36 PM CDT
Crepúsculo astronómico 5:59 AM CDT 9:08 PM CDT
Luna 6:56 AM CDT 7:17 PM CDT
Horas de luz 13h 00m
Horas de luz
12h 06m
Tomorrow will be 2m 38s shorter.
Creciente menguante, 0% of the Moon is Illuminated
Hoy
Creciente menguante
Sep 24
Nueva
Oct 1
Cuarto creciente
Oct 8
Luna llena
Oct 15
Cuarto menguante

Extremos de hoy

Máximos del estado Bajos del estado

Community

WunderPhotos

Upload Photos

1,755,765 ¡fotos cargadas!

Nearby

Grosos de nieve

Estación Profundido Altura
No tenemos constancia de nieve nueva.

Actividad de terremotos

Ciudad Distance Mag. Tiempo y dato
No hay informes recientes de la actividad sísmica.
Magnitud mínima muestra es 2,5.

Temperaturas de aguas costeras

Lugar Temperatura
Sin partes meteorológicos de las estaciones

Estaciones meteorológicas cercanas